sensor_id;sensor_type;location;lat;lon;timestamp;pressure;altitude;pressure_sealevel;temperature;humidity
50268;BME280;36153;50.960;6.220;2024-01-25T00:01:05;101800.69;;;12.49;62.42
50268;BME280;36153;50.960;6.220;2024-01-25T00:03:05;101808.44;;;12.46;62.70
50268;BME280;36153;50.960;6.220;2024-01-25T00:05:05;101806.38;;;12.34;62.90
50268;BME280;36153;50.960;6.220;2024-01-25T00:07:07;101810.69;;;12.31;63.25
50268;BME280;36153;50.960;6.220;2024-01-25T00:09:08;101809.22;;;12.42;62.81
50268;BME280;36153;50.960;6.220;2024-01-25T00:11:09;101809.63;;;12.24;63.56
50268;BME280;36153;50.960;6.220;2024-01-25T00:13:09;101816.06;;;12.38;63.16
50268;BME280;36153;50.960;6.220;2024-01-25T00:15:16;101812.53;;;12.35;63.03
50268;BME280;36153;50.960;6.220;2024-01-25T00:17:16;101808.16;;;12.35;63.05
50268;BME280;36153;50.960;6.220;2024-01-25T00:19:19;101803.09;;;12.41;62.78
50268;BME280;36153;50.960;6.220;2024-01-25T00:21:22;101799.19;;;12.24;63.63
50268;BME280;36153;50.960;6.220;2024-01-25T00:23:22;101808.88;;;12.28;63.25
50268;BME280;36153;50.960;6.220;2024-01-25T00:25:26;101801.94;;;12.30;63.24
50268;BME280;36153;50.960;6.220;2024-01-25T00:27:26;101805.53;;;12.34;63.04
50268;BME280;36153;50.960;6.220;2024-01-25T00:29:30;101804.34;;;12.21;63.66
50268;BME280;36153;50.960;6.220;2024-01-25T00:31:31;101805.28;;;12.24;63.66
50268;BME280;36153;50.960;6.220;2024-01-25T00:33:31;101799.91;;;12.18;63.85
50268;BME280;36153;50.960;6.220;2024-01-25T00:35:32;101804.81;;;12.06;64.10
50268;BME280;36153;50.960;6.220;2024-01-25T00:37:39;101818.94;;;12.14;63.92
50268;BME280;36153;50.960;6.220;2024-01-25T00:39:52;101821.94;;;12.29;63.47
50268;BME280;36153;50.960;6.220;2024-01-25T00:41:58;101811.66;;;12.36;63.13
50268;BME280;36153;50.960;6.220;2024-01-25T00:44:06;101815.53;;;12.52;62.53
50268;BME280;36153;50.960;6.220;2024-01-25T00:46:06;101807.16;;;12.30;62.84
50268;BME280;36153;50.960;6.220;2024-01-25T00:48:07;101807.75;;;12.18;63.39
50268;BME280;36153;50.960;6.220;2024-01-25T00:50:08;101818.91;;;12.12;63.85
50268;BME280;36153;50.960;6.220;2024-01-25T00:52:12;101817.63;;;12.32;63.21
50268;BME280;36153;50.960;6.220;2024-01-25T00:54:18;101820.31;;;12.33;63.19
50268;BME280;36153;50.960;6.220;2024-01-25T00:56:19;101818.72;;;12.06;63.97
50268;BME280;36153;50.960;6.220;2024-01-25T00:58:19;101817.06;;;12.08;63.76
50268;BME280;36153;50.960;6.220;2024-01-25T01:00:29;101815.69;;;11.91;64.61
50268;BME280;36153;50.960;6.220;2024-01-25T01:02:35;101825.16;;;11.87;64.57
50268;BME280;36153;50.960;6.220;2024-01-25T01:04:36;101831.25;;;11.88;64.76
50268;BME280;36153;50.960;6.220;2024-01-25T01:06:37;101843.56;;;11.92;64.45
50268;BME280;36153;50.960;6.220;2024-01-25T01:08:38;101839.13;;;11.89;64.37
50268;BME280;36153;50.960;6.220;2024-01-25T01:10:38;101827.13;;;11.94;64.25
50268;BME280;36153;50.960;6.220;2024-01-25T01:12:44;101824.13;;;11.81;65.02
50268;BME280;36153;50.960;6.220;2024-01-25T01:14:44;101827.59;;;11.81;64.51
50268;BME280;36153;50.960;6.220;2024-01-25T01:16:45;101827.41;;;11.73;64.72
50268;BME280;36153;50.960;6.220;2024-01-25T01:18:45;101824.19;;;11.84;64.98
50268;BME280;36153;50.960;6.220;2024-01-25T01:20:49;101827.47;;;11.76;65.17
50268;BME280;36153;50.960;6.220;2024-01-25T01:22:51;101822.69;;;11.92;64.56
50268;BME280;36153;50.960;6.220;2024-01-25T01:24:51;101827.63;;;11.83;65.09
50268;BME280;36153;50.960;6.220;2024-01-25T01:26:52;101822.81;;;11.97;64.69
50268;BME280;36153;50.960;6.220;2024-01-25T01:28:55;101817.97;;;12.10;64.12
50268;BME280;36153;50.960;6.220;2024-01-25T01:30:56;101826.59;;;12.08;64.35
50268;BME280;36153;50.960;6.220;2024-01-25T01:32:56;101833.59;;;12.09;64.51
50268;BME280;36153;50.960;6.220;2024-01-25T01:34:59;101818.94;;;12.14;64.25
50268;BME280;36153;50.960;6.220;2024-01-25T01:37:00;101813.91;;;11.90;64.61
50268;BME280;36153;50.960;6.220;2024-01-25T01:39:00;101818.22;;;11.88;64.95
50268;BME280;36153;50.960;6.220;2024-01-25T01:41:03;101833.66;;;11.80;65.51
50268;BME280;36153;50.960;6.220;2024-01-25T01:43:04;101828.72;;;11.91;64.85
50268;BME280;36153;50.960;6.220;2024-01-25T01:45:05;101833.16;;;11.93;64.46
50268;BME280;36153;50.960;6.220;2024-01-25T01:47:05;101827.91;;;11.92;64.55
50268;BME280;36153;50.960;6.220;2024-01-25T01:49:14;101833.72;;;11.82;64.83
50268;BME280;36153;50.960;6.220;2024-01-25T01:51:21;101833.00;;;11.57;66.04
50268;BME280;36153;50.960;6.220;2024-01-25T01:53:32;101834.28;;;11.71;65.45
50268;BME280;36153;50.960;6.220;2024-01-25T01:55:39;101835.06;;;11.69;65.05
50268;BME280;36153;50.960;6.220;2024-01-25T01:57:45;101836.84;;;11.70;64.99
50268;BME280;36153;50.960;6.220;2024-01-25T01:59:47;101836.78;;;11.67;65.39
50268;BME280;36153;50.960;6.220;2024-01-25T02:01:49;101842.84;;;11.67;65.05
50268;BME280;36153;50.960;6.220;2024-01-25T02:03:49;101842.25;;;11.46;66.17
50268;BME280;36153;50.960;6.220;2024-01-25T02:05:55;101831.00;;;11.48;66.27
50268;BME280;36153;50.960;6.220;2024-01-25T02:07:55;101845.44;;;11.66;65.74
50268;BME280;36153;50.960;6.220;2024-01-25T02:09:59;101845.38;;;11.64;65.60
50268;BME280;36153;50.960;6.220;2024-01-25T02:12:02;101846.13;;;11.60;66.17
50268;BME280;36153;50.960;6.220;2024-01-25T02:14:02;101848.50;;;11.52;65.95
50268;BME280;36153;50.960;6.220;2024-01-25T02:16:07;101853.22;;;11.64;65.53
50268;BME280;36153;50.960;6.220;2024-01-25T02:18:07;101853.13;;;11.61;65.44
50268;BME280;36153;50.960;6.220;2024-01-25T02:20:08;101857.03;;;11.47;65.63
50268;BME280;36153;50.960;6.220;2024-01-25T02:22:09;101863.47;;;11.58;65.82
50268;BME280;36153;50.960;6.220;2024-01-25T02:24:12;101859.22;;;11.61;65.34
50268;BME280;36153;50.960;6.220;2024-01-25T02:26:16;101865.06;;;11.53;65.29
50268;BME280;36153;50.960;6.220;2024-01-25T02:28:19;101862.50;;;11.54;64.91
50268;BME280;36153;50.960;6.220;2024-01-25T02:30:25;101866.56;;;11.44;65.37
50268;BME280;36153;50.960;6.220;2024-01-25T02:32:25;101861.25;;;11.41;65.50
50268;BME280;36153;50.960;6.220;2024-01-25T02:34:25;101864.34;;;11.30;66.30
50268;BME280;36153;50.960;6.220;2024-01-25T02:36:26;101863.28;;;11.23;66.59
50268;BME280;36153;50.960;6.220;2024-01-25T02:38:26;101865.25;;;11.30;66.39
50268;BME280;36153;50.960;6.220;2024-01-25T02:40:29;101862.81;;;11.36;66.12
50268;BME280;36153;50.960;6.220;2024-01-25T02:42:30;101870.06;;;11.47;66.02
50268;BME280;36153;50.960;6.220;2024-01-25T02:44:30;101861.13;;;11.38;65.76
50268;BME280;36153;50.960;6.220;2024-01-25T02:46:30;101864.59;;;11.37;65.79
50268;BME280;36153;50.960;6.220;2024-01-25T02:48:31;101872.97;;;11.27;66.07
50268;BME280;36153;50.960;6.220;2024-01-25T02:50:31;101867.97;;;11.33;66.00
50268;BME280;36153;50.960;6.220;2024-01-25T02:52:32;101875.41;;;11.21;66.54
50268;BME280;36153;50.960;6.220;2024-01-25T02:54:35;101879.22;;;11.32;65.61
50268;BME280;36153;50.960;6.220;2024-01-25T02:56:38;101895.09;;;11.40;65.11
50268;BME280;36153;50.960;6.220;2024-01-25T02:58:39;101894.03;;;11.33;65.60
50268;BME280;36153;50.960;6.220;2024-01-25T03:00:39;101888.81;;;11.33;65.34
50268;BME280;36153;50.960;6.220;2024-01-25T03:02:42;101888.59;;;11.27;65.49
50268;BME280;36153;50.960;6.220;2024-01-25T03:04:45;101887.59;;;11.22;65.72
50268;BME280;36153;50.960;6.220;2024-01-25T03:06:46;101897.47;;;11.32;65.02
50268;BME280;36153;50.960;6.220;2024-01-25T03:08:52;101913.75;;;11.25;65.32
50268;BME280;36153;50.960;6.220;2024-01-25T03:10:55;101907.72;;;11.26;65.03
50268;BME280;36153;50.960;6.220;2024-01-25T03:13:05;101908.50;;;11.23;65.20
50268;BME280;36153;50.960;6.220;2024-01-25T03:15:06;101912.94;;;11.26;65.13
50268;BME280;36153;50.960;6.220;2024-01-25T03:17:10;101922.19;;;11.16;65.38
50268;BME280;36153;50.960;6.220;2024-01-25T03:19:12;101913.91;;;11.02;65.54
50268;BME280;36153;50.960;6.220;2024-01-25T03:21:13;101916.56;;;11.04;65.41
50268;BME280;36153;50.960;6.220;2024-01-25T03:23:19;101915.94;;;10.85;65.92
50268;BME280;36153;50.960;6.220;2024-01-25T03:25:22;101904.56;;;10.82;66.15
50268;BME280;36153;50.960;6.220;2024-01-25T03:27:25;101899.03;;;10.98;66.27
50268;BME280;36153;50.960;6.220;2024-01-25T03:29:26;101899.53;;;10.88;66.00
50268;BME280;36153;50.960;6.220;2024-01-25T03:31:26;101895.88;;;10.83;66.91
50268;BME280;36153;50.960;6.220;2024-01-25T03:33:29;101897.88;;;10.90;66.37
50268;BME280;36153;50.960;6.220;2024-01-25T03:35:32;101897.75;;;10.87;66.49
50268;BME280;36153;50.960;6.220;2024-01-25T03:37:32;101897.97;;;10.93;65.93
50268;BME280;36153;50.960;6.220;2024-01-25T03:39:33;101895.22;;;10.88;66.24
50268;BME280;36153;50.960;6.220;2024-01-25T03:41:33;101899.44;;;10.85;66.40
50268;BME280;36153;50.960;6.220;2024-01-25T03:43:34;101888.25;;;10.87;66.09
50268;BME280;36153;50.960;6.220;2024-01-25T03:45:37;101884.59;;;10.82;66.18
50268;BME280;36153;50.960;6.220;2024-01-25T03:47:37;101884.28;;;10.73;66.73
50268;BME280;36153;50.960;6.220;2024-01-25T03:49:37;101886.31;;;10.82;66.52
50268;BME280;36153;50.960;6.220;2024-01-25T03:51:38;101888.25;;;10.87;66.12
50268;BME280;36153;50.960;6.220;2024-01-25T03:53:41;101889.34;;;10.68;66.97
50268;BME280;36153;50.960;6.220;2024-01-25T03:55:49;101889.25;;;10.65;66.80
50268;BME280;36153;50.960;6.220;2024-01-25T03:57:49;101893.59;;;10.65;66.72
50268;BME280;36153;50.960;6.220;2024-01-25T03:59:58;101890.72;;;10.57;67.35
50268;BME280;36153;50.960;6.220;2024-01-25T04:01:58;101900.41;;;10.61;66.89
50268;BME280;36153;50.960;6.220;2024-01-25T04:04:08;101896.97;;;10.62;66.67
50268;BME280;36153;50.960;6.220;2024-01-25T04:06:10;101900.75;;;10.46;67.21
50268;BME280;36153;50.960;6.220;2024-01-25T04:08:11;101894.41;;;10.64;66.42
50268;BME280;36153;50.960;6.220;2024-01-25T04:10:11;101897.28;;;10.46;66.84
50268;BME280;36153;50.960;6.220;2024-01-25T04:12:26;101882.03;;;10.32;67.52
50268;BME280;36153;50.960;6.220;2024-01-25T04:14:30;101882.47;;;10.45;67.24
50268;BME280;36153;50.960;6.220;2024-01-25T04:16:31;101881.50;;;10.41;67.41
50268;BME280;36153;50.960;6.220;2024-01-25T04:18:31;101891.13;;;10.44;67.17
50268;BME280;36153;50.960;6.220;2024-01-25T04:20:32;101899.56;;;10.36;67.44
50268;BME280;36153;50.960;6.220;2024-01-25T04:22:37;101910.19;;;10.43;67.42
50268;BME280;36153;50.960;6.220;2024-01-25T04:24:40;101904.75;;;10.36;67.58
50268;BME280;36153;50.960;6.220;2024-01-25T04:26:43;101907.94;;;10.29;67.67
50268;BME280;36153;50.960;6.220;2024-01-25T04:28:46;101900.91;;;10.27;68.04
50268;BME280;36153;50.960;6.220;2024-01-25T04:30:47;101901.22;;;10.34;68.13
50268;BME280;36153;50.960;6.220;2024-01-25T04:32:56;101905.66;;;10.37;68.17
50268;BME280;36153;50.960;6.220;2024-01-25T04:35:00;101908.50;;;10.45;67.61
50268;BME280;36153;50.960;6.220;2024-01-25T04:37:06;101911.34;;;10.51;66.99
50268;BME280;36153;50.960;6.220;2024-01-25T04:39:12;101902.47;;;10.46;67.09
50268;BME280;36153;50.960;6.220;2024-01-25T04:41:13;101904.94;;;10.41;66.78
50268;BME280;36153;50.960;6.220;2024-01-25T04:43:22;101904.63;;;10.33;67.46
50268;BME280;36153;50.960;6.220;2024-01-25T04:45:23;101896.47;;;10.24;67.35
50268;BME280;36153;50.960;6.220;2024-01-25T04:47:26;101888.81;;;10.27;67.23
50268;BME280;36153;50.960;6.220;2024-01-25T04:49:26;101882.59;;;10.23;67.29
50268;BME280;36153;50.960;6.220;2024-01-25T04:51:27;101878.16;;;10.21;66.70
50268;BME280;36153;50.960;6.220;2024-01-25T04:53:27;101875.31;;;10.13;67.46
50268;BME280;36153;50.960;6.220;2024-01-25T04:55:28;101876.28;;;10.17;67.17
50268;BME280;36153;50.960;6.220;2024-01-25T04:57:28;101881.28;;;10.11;67.29
50268;BME280;36153;50.960;6.220;2024-01-25T04:59:28;101882.81;;;10.05;67.62
50268;BME280;36153;50.960;6.220;2024-01-25T05:01:29;101884.25;;;10.21;67.56
50268;BME280;36153;50.960;6.220;2024-01-25T05:03:29;101886.69;;;10.17;66.92
50268;BME280;36153;50.960;6.220;2024-01-25T05:05:33;101893.34;;;10.08;67.31
50268;BME280;36153;50.960;6.220;2024-01-25T05:07:36;101893.22;;;10.05;67.47
50268;BME280;36153;50.960;6.220;2024-01-25T05:09:39;101894.16;;;10.07;67.03
50268;BME280;36153;50.960;6.220;2024-01-25T05:11:42;101905.53;;;10.10;66.79
50268;BME280;36153;50.960;6.220;2024-01-25T05:13:45;101912.59;;;10.14;66.63
50268;BME280;36153;50.960;6.220;2024-01-25T05:15:51;101914.16;;;10.08;66.70
50268;BME280;36153;50.960;6.220;2024-01-25T05:17:52;101912.31;;;10.06;66.54
50268;BME280;36153;50.960;6.220;2024-01-25T05:19:58;101904.47;;;10.04;66.52
50268;BME280;36153;50.960;6.220;2024-01-25T05:21:58;101898.66;;;9.87;66.67
50268;BME280;36153;50.960;6.220;2024-01-25T05:23:58;101906.03;;;9.77;67.44
50268;BME280;36153;50.960;6.220;2024-01-25T05:26:01;101914.25;;;9.87;66.98
50268;BME280;36153;50.960;6.220;2024-01-25T05:28:04;101910.66;;;9.84;66.94
50268;BME280;36153;50.960;6.220;2024-01-25T05:30:05;101905.72;;;9.67;67.55
50268;BME280;36153;50.960;6.220;2024-01-25T05:32:24;101904.06;;;9.69;67.67
50268;BME280;36153;50.960;6.220;2024-01-25T05:34:27;101914.22;;;9.63;67.74
50268;BME280;36153;50.960;6.220;2024-01-25T05:36:27;101915.97;;;9.64;68.22
50268;BME280;36153;50.960;6.220;2024-01-25T05:38:28;101912.69;;;9.68;67.77
50268;BME280;36153;50.960;6.220;2024-01-25T05:40:28;101922.63;;;9.79;67.53
50268;BME280;36153;50.960;6.220;2024-01-25T05:42:28;101911.50;;;9.83;67.30
50268;BME280;36153;50.960;6.220;2024-01-25T05:44:28;101909.16;;;9.90;66.76
50268;BME280;36153;50.960;6.220;2024-01-25T05:46:29;101905.59;;;9.87;66.70
50268;BME280;36153;50.960;6.220;2024-01-25T05:48:29;101903.69;;;9.83;66.61
50268;BME280;36153;50.960;6.220;2024-01-25T05:50:29;101907.72;;;9.74;66.99
50268;BME280;36153;50.960;6.220;2024-01-25T05:52:30;101909.97;;;9.65;67.16
50268;BME280;36153;50.960;6.220;2024-01-25T05:54:30;101911.38;;;9.57;67.27
50268;BME280;36153;50.960;6.220;2024-01-25T05:56:31;101912.19;;;9.56;67.37
50268;BME280;36153;50.960;6.220;2024-01-25T05:58:34;101915.50;;;9.52;67.00
50268;BME280;36153;50.960;6.220;2024-01-25T06:00:37;101909.22;;;9.45;67.40
50268;BME280;36153;50.960;6.220;2024-01-25T06:02:47;101913.41;;;9.42;67.45
50268;BME280;36153;50.960;6.220;2024-01-25T06:04:48;101920.00;;;9.33;67.40
50268;BME280;36153;50.960;6.220;2024-01-25T06:06:48;101919.28;;;9.37;67.26
50268;BME280;36153;50.960;6.220;2024-01-25T06:08:55;101915.81;;;9.37;67.44
50268;BME280;36153;50.960;6.220;2024-01-25T06:10:55;101918.66;;;9.43;66.92
50268;BME280;36153;50.960;6.220;2024-01-25T06:12:58;101915.19;;;9.43;66.84
50268;BME280;36153;50.960;6.220;2024-01-25T06:14:58;101921.19;;;9.42;67.34
50268;BME280;36153;50.960;6.220;2024-01-25T06:17:01;101924.50;;;9.37;67.07
50268;BME280;36153;50.960;6.220;2024-01-25T06:19:03;101926.03;;;9.32;67.51
50268;BME280;36153;50.960;6.220;2024-01-25T06:21:09;101935.47;;;9.30;67.63
50268;BME280;36153;50.960;6.220;2024-01-25T06:23:10;101927.84;;;9.35;67.05
50268;BME280;36153;50.960;6.220;2024-01-25T06:25:10;101933.06;;;9.35;66.77
50268;BME280;36153;50.960;6.220;2024-01-25T06:27:10;101936.19;;;9.26;67.21
50268;BME280;36153;50.960;6.220;2024-01-25T06:29:10;101939.66;;;9.27;67.21
50268;BME280;36153;50.960;6.220;2024-01-25T06:31:11;101938.66;;;9.23;67.08
50268;BME280;36153;50.960;6.220;2024-01-25T06:33:11;101940.56;;;9.27;66.62
50268;BME280;36153;50.960;6.220;2024-01-25T06:35:24;101936.25;;;9.28;66.64
50268;BME280;36153;50.960;6.220;2024-01-25T06:37:30;101932.50;;;9.21;66.70
50268;BME280;36153;50.960;6.220;2024-01-25T06:39:30;101936.50;;;9.13;66.40
50268;BME280;36153;50.960;6.220;2024-01-25T06:41:31;101936.72;;;9.17;66.54
50268;BME280;36153;50.960;6.220;2024-01-25T06:43:31;101939.25;;;9.16;66.58
50268;BME280;36153;50.960;6.220;2024-01-25T06:45:31;101948.63;;;9.12;66.40
50268;BME280;36153;50.960;6.220;2024-01-25T06:47:32;101947.75;;;9.12;66.44
50268;BME280;36153;50.960;6.220;2024-01-25T06:49:32;101946.97;;;8.93;67.11
50268;BME280;36153;50.960;6.220;2024-01-25T06:51:38;101959.25;;;8.97;67.44
50268;BME280;36153;50.960;6.220;2024-01-25T06:53:38;101950.59;;;8.97;66.88
50268;BME280;36153;50.960;6.220;2024-01-25T06:55:40;101962.75;;;8.98;67.00
50268;BME280;36153;50.960;6.220;2024-01-25T06:57:40;101962.13;;;9.03;67.12
50268;BME280;36153;50.960;6.220;2024-01-25T06:59:40;101967.56;;;9.10;66.87
50268;BME280;36153;50.960;6.220;2024-01-25T07:01:40;101968.53;;;9.12;66.66
50268;BME280;36153;50.960;6.220;2024-01-25T07:03:41;101975.63;;;9.16;66.58
50268;BME280;36153;50.960;6.220;2024-01-25T07:05:42;101979.97;;;9.17;66.75
50268;BME280;36153;50.960;6.220;2024-01-25T07:07:45;101985.16;;;9.17;66.79
50268;BME280;36153;50.960;6.220;2024-01-25T07:09:45;101975.47;;;9.13;66.67
50268;BME280;36153;50.960;6.220;2024-01-25T07:11:55;101982.44;;;9.14;66.82
50268;BME280;36153;50.960;6.220;2024-01-25T07:13:55;101983.41;;;9.16;66.77
50268;BME280;36153;50.960;6.220;2024-01-25T07:15:56;101976.44;;;9.15;66.69
50268;BME280;36153;50.960;6.220;2024-01-25T08:42:28;101989.47;;;10.76;65.44
50268;BME280;36153;50.960;6.220;2024-01-25T08:44:28;101976.34;;;10.73;65.34
50268;BME280;36153;50.960;6.220;2024-01-25T08:46:31;101976.59;;;10.81;65.36
50268;BME280;36153;50.960;6.220;2024-01-25T08:48:32;101965.50;;;10.87;65.25
50268;BME280;36153;50.960;6.220;2024-01-25T08:50:32;101958.63;;;10.89;65.15
50268;BME280;36153;50.960;6.220;2024-01-25T08:52:33;101956.47;;;11.03;65.03
50268;BME280;36153;50.960;6.220;2024-01-25T08:54:33;101965.44;;;11.11;64.80
50268;BME280;36153;50.960;6.220;2024-01-25T08:56:37;101985.47;;;11.12;64.52
50268;BME280;36153;50.960;6.220;2024-01-25T08:58:37;101988.16;;;11.15;65.00
50268;BME280;36153;50.960;6.220;2024-01-25T09:00:37;101983.03;;;11.18;64.48
50268;BME280;36153;50.960;6.220;2024-01-25T09:02:55;101966.81;;;11.27;64.60
50268;BME280;36153;50.960;6.220;2024-01-25T09:04:58;101948.81;;;11.35;64.68
50268;BME280;36153;50.960;6.220;2024-01-25T09:07:05;101958.25;;;11.31;64.96
50268;BME280;36153;50.960;6.220;2024-01-25T09:09:06;101966.50;;;11.45;64.69
50268;BME280;36153;50.960;6.220;2024-01-25T09:11:21;101979.72;;;11.50;64.45
50268;BME280;36153;50.960;6.220;2024-01-25T09:13:22;101970.16;;;11.23;65.08
50268;BME280;36153;50.960;6.220;2024-01-25T09:15:22;101976.56;;;11.05;65.43
50268;BME280;36153;50.960;6.220;2024-01-25T09:17:22;101977.88;;;11.20;65.77
50268;BME280;36153;50.960;6.220;2024-01-25T09:19:23;101981.72;;;11.31;65.74
50268;BME280;36153;50.960;6.220;2024-01-25T09:21:26;101983.25;;;11.52;65.06
50268;BME280;36153;50.960;6.220;2024-01-25T09:23:29;101986.78;;;11.54;64.88
50268;BME280;36153;50.960;6.220;2024-01-25T09:25:36;101987.34;;;11.72;65.02
50268;BME280;36153;50.960;6.220;2024-01-25T09:27:36;101982.16;;;12.01;64.44
50268;BME280;36153;50.960;6.220;2024-01-25T09:29:42;101989.09;;;12.01;64.05
50268;BME280;36153;50.960;6.220;2024-01-25T09:31:45;101989.00;;;11.98;63.89
50268;BME280;36153;50.960;6.220;2024-01-25T09:33:48;101991.31;;;12.17;63.58
50268;BME280;36153;50.960;6.220;2024-01-25T09:35:51;101986.41;;;12.28;63.18
50268;BME280;36153;50.960;6.220;2024-01-25T09:37:51;101995.38;;;12.07;62.62
50268;BME280;36153;50.960;6.220;2024-01-25T09:39:52;101979.34;;;11.95;63.28
50268;BME280;36153;50.960;6.220;2024-01-25T09:41:53;101990.47;;;11.89;62.98
50268;BME280;36153;50.960;6.220;2024-01-25T09:43:53;101986.63;;;11.76;63.12
50268;BME280;36153;50.960;6.220;2024-01-25T09:45:56;101984.91;;;11.78;63.18
50268;BME280;36153;50.960;6.220;2024-01-25T09:47:57;101980.06;;;11.91;63.59
50268;BME280;36153;50.960;6.220;2024-01-25T09:49:58;101981.22;;;11.99;63.04
50268;BME280;36153;50.960;6.220;2024-01-25T09:52:04;101991.34;;;11.90;63.02
50268;BME280;36153;50.960;6.220;2024-01-25T09:54:08;101988.72;;;11.90;62.63
50268;BME280;36153;50.960;6.220;2024-01-25T09:56:10;101980.91;;;11.90;63.24
50268;BME280;36153;50.960;6.220;2024-01-25T09:58:14;101982.00;;;11.97;62.78
50268;BME280;36153;50.960;6.220;2024-01-25T10:00:16;101978.50;;;12.25;62.27
50268;BME280;36153;50.960;6.220;2024-01-25T10:02:17;101974.66;;;12.13;62.03
50268;BME280;36153;50.960;6.220;2024-01-25T10:04:20;101981.66;;;12.15;62.09
50268;BME280;36153;50.960;6.220;2024-01-25T10:06:23;101986.88;;;12.15;62.06
50268;BME280;36153;50.960;6.220;2024-01-25T10:08:24;101987.44;;;12.33;62.01
50268;BME280;36153;50.960;6.220;2024-01-25T10:10:32;101989.06;;;12.29;61.59
50268;BME280;36153;50.960;6.220;2024-01-25T10:12:32;101987.94;;;12.52;61.47
50268;BME280;36153;50.960;6.220;2024-01-25T10:14:35;101993.97;;;12.51;61.05
50268;BME280;36153;50.960;6.220;2024-01-25T10:16:36;101992.94;;;12.44;60.68
50268;BME280;36153;50.960;6.220;2024-01-25T10:18:36;101999.84;;;12.42;60.95
50268;BME280;36153;50.960;6.220;2024-01-25T10:20:37;101997.28;;;12.43;60.72
50268;BME280;36153;50.960;6.220;2024-01-25T10:22:37;102011.50;;;12.55;60.71
50268;BME280;36153;50.960;6.220;2024-01-25T10:24:39;102007.38;;;12.63;60.68
50268;BME280;36153;50.960;6.220;2024-01-25T10:26:43;102005.34;;;12.51;60.33
50268;BME280;36153;50.960;6.220;2024-01-25T10:28:54;102005.94;;;12.74;60.55
50268;BME280;36153;50.960;6.220;2024-01-25T10:31:01;102005.53;;;12.92;60.15
50268;BME280;36153;50.960;6.220;2024-01-25T10:33:09;102003.22;;;13.03;59.46
50268;BME280;36153;50.960;6.220;2024-01-25T10:35:10;102004.00;;;13.01;59.50
50268;BME280;36153;50.960;6.220;2024-01-25T10:37:17;101996.59;;;13.18;59.23
50268;BME280;36153;50.960;6.220;2024-01-25T10:39:19;101989.13;;;13.33;59.07
50268;BME280;36153;50.960;6.220;2024-01-25T10:41:23;101985.41;;;13.23;58.44
50268;BME280;36153;50.960;6.220;2024-01-25T10:43:24;101985.34;;;13.22;58.46
50268;BME280;36153;50.960;6.220;2024-01-25T10:45:24;101978.69;;;13.35;58.54
50268;BME280;36153;50.960;6.220;2024-01-25T10:47:27;101982.28;;;13.37;57.86
50268;BME280;36153;50.960;6.220;2024-01-25T10:49:30;101975.06;;;13.28;57.94
50268;BME280;36153;50.960;6.220;2024-01-25T10:51:32;101973.03;;;13.16;58.23
50268;BME280;36153;50.960;6.220;2024-01-25T10:53:34;101963.94;;;13.35;58.16
50268;BME280;36153;50.960;6.220;2024-01-25T10:55:35;101958.41;;;13.24;58.09
50268;BME280;36153;50.960;6.220;2024-01-25T10:57:39;101959.78;;;13.45;58.00
50268;BME280;36153;50.960;6.220;2024-01-25T10:59:45;101942.66;;;13.59;57.51
50268;BME280;36153;50.960;6.220;2024-01-25T11:01:46;101941.78;;;13.59;57.04
50268;BME280;36153;50.960;6.220;2024-01-25T11:03:55;101933.97;;;13.60;56.46
50268;BME280;36153;50.960;6.220;2024-01-25T11:06:08;101926.53;;;13.80;56.52
50268;BME280;36153;50.960;6.220;2024-01-25T11:08:46;101925.00;;;13.90;56.30
50268;BME280;36153;50.960;6.220;2024-01-25T11:11:00;101918.34;;;14.06;56.05
50268;BME280;36153;50.960;6.220;2024-01-25T11:13:23;101920.13;;;14.07;55.53
50268;BME280;36153;50.960;6.220;2024-01-25T11:15:36;101909.47;;;13.98;55.58
50268;BME280;36153;50.960;6.220;2024-01-25T11:17:37;101906.16;;;14.08;55.28
50268;BME280;36153;50.960;6.220;2024-01-25T11:19:38;101909.84;;;13.74;56.36
50268;BME280;36153;50.960;6.220;2024-01-25T11:22:02;101901.91;;;14.13;55.96
50268;BME280;36153;50.960;6.220;2024-01-25T11:24:03;101893.00;;;14.05;55.47
50268;BME280;36153;50.960;6.220;2024-01-25T11:26:12;101897.44;;;14.08;55.55
50268;BME280;36153;50.960;6.220;2024-01-25T11:28:22;101888.75;;;14.10;55.33
50268;BME280;36153;50.960;6.220;2024-01-25T11:30:25;101888.28;;;14.31;55.11
50268;BME280;36153;50.960;6.220;2024-01-25T11:32:28;101882.84;;;14.22;54.73
50268;BME280;36153;50.960;6.220;2024-01-25T11:34:28;101883.03;;;14.31;54.33
50268;BME280;36153;50.960;6.220;2024-01-25T11:36:29;101877.63;;;14.22;54.13
50268;BME280;36153;50.960;6.220;2024-01-25T11:38:29;101871.47;;;14.19;53.98
50268;BME280;36153;50.960;6.220;2024-01-25T11:40:30;101867.91;;;14.16;53.73
50268;BME280;36153;50.960;6.220;2024-01-25T11:42:34;101866.59;;;14.42;54.11
50268;BME280;36153;50.960;6.220;2024-01-25T11:44:37;101850.44;;;14.63;53.85
50268;BME280;36153;50.960;6.220;2024-01-25T11:46:37;101865.34;;;14.67;53.06
50268;BME280;36153;50.960;6.220;2024-01-25T11:48:43;101858.38;;;14.69;53.65
50268;BME280;36153;50.960;6.220;2024-01-25T11:50:44;101852.53;;;14.85;53.31
50268;BME280;36153;50.960;6.220;2024-01-25T11:52:50;101846.81;;;15.13;52.83
50268;BME280;36153;50.960;6.220;2024-01-25T11:55:04;101845.47;;;15.44;52.12
50268;BME280;36153;50.960;6.220;2024-01-25T11:57:43;101861.06;;;15.33;52.48
50268;BME280;36153;50.960;6.220;2024-01-25T11:59:49;101850.91;;;15.60;52.26
50268;BME280;36153;50.960;6.220;2024-01-25T12:02:13;101856.19;;;15.63;52.12
50268;BME280;36153;50.960;6.220;2024-01-25T12:04:16;101868.22;;;15.42;50.64
50268;BME280;36153;50.960;6.220;2024-01-25T12:06:17;101861.59;;;15.08;51.52
50268;BME280;36153;50.960;6.220;2024-01-25T12:08:21;101854.63;;;15.11;51.47
50268;BME280;36153;50.960;6.220;2024-01-25T12:10:30;101844.09;;;15.07;51.10